sensor_id;sensor_type;location;lat;lon;timestamp;P1;P2;P0
67376;PMS7003;54261;46.086;6.588;2024-02-04T00:02:30;0.75;0.75;0.00
67376;PMS7003;54261;46.086;6.588;2024-02-04T00:07:32;2.00;1.00;0.00
67376;PMS7003;54261;46.086;6.588;2024-02-04T00:12:34;1.00;1.00;0.00
67376;PMS7003;54261;46.086;6.588;2024-02-04T00:17:36;1.00;0.00;0.00
67376;PMS7003;54261;46.086;6.588;2024-02-04T00:22:38;1.75;0.50;0.00
67376;PMS7003;54261;46.086;6.588;2024-02-04T00:27:40;1.50;1.50;1.25
67376;PMS7003;54261;46.086;6.588;2024-02-04T00:32:42;0.00;0.00;0.00
67376;PMS7003;54261;46.086;6.588;2024-02-04T00:37:45;1.00;1.00;1.00
67376;PMS7003;54261;46.086;6.588;2024-02-04T00:42:47;0.75;0.75;0.00
67376;PMS7003;54261;46.086;6.588;2024-02-04T00:47:49;0.50;0.50;0.00
67376;PMS7003;54261;46.086;6.588;2024-02-04T00:52:51;0.00;0.00;0.00
67376;PMS7003;54261;46.086;6.588;2024-02-04T00:57:55;0.00;0.00;0.00
67376;PMS7003;54261;46.086;6.588;2024-02-04T01:03:00;0.00;0.00;0.00
67376;PMS7003;54261;46.086;6.588;2024-02-04T01:08:02;1.00;1.00;0.00
67376;PMS7003;54261;46.086;6.588;2024-02-04T01:13:04;0.00;0.00;0.00
67376;PMS7003;54261;46.086;6.588;2024-02-04T01:18:06;0.00;0.00;0.00
67376;PMS7003;54261;46.086;6.588;2024-02-04T01:23:09;0.75;0.75;0.00
67376;PMS7003;54261;46.086;6.588;2024-02-04T01:28:11;0.00;0.00;0.00
67376;PMS7003;54261;46.086;6.588;2024-02-04T01:33:14;1.00;1.00;0.25
67376;PMS7003;54261;46.086;6.588;2024-02-04T01:38:17;1.00;1.00;0.00
67376;PMS7003;54261;46.086;6.588;2024-02-04T01:43:20;2.25;2.00;2.00
67376;PMS7003;54261;46.086;6.588;2024-02-04T01:48:22;2.50;1.75;1.50
67376;PMS7003;54261;46.086;6.588;2024-02-04T01:53:25;0.00;0.00;0.00
67376;PMS7003;54261;46.086;6.588;2024-02-04T01:58:28;0.75;0.75;0.25
67376;PMS7003;54261;46.086;6.588;2024-02-04T02:03:31;1.00;1.00;1.00
67376;PMS7003;54261;46.086;6.588;2024-02-04T02:08:33;1.00;1.00;0.00
67376;PMS7003;54261;46.086;6.588;2024-02-04T02:13:36;1.00;1.00;0.00
67376;PMS7003;54261;46.086;6.588;2024-02-04T02:18:42;0.00;0.00;0.00
67376;PMS7003;54261;46.086;6.588;2024-02-04T02:29:10;1.00;0.00;0.00
67376;PMS7003;54261;46.086;6.588;2024-02-04T02:34:12;0.00;0.00;0.00
67376;PMS7003;54261;46.086;6.588;2024-02-04T02:39:32;1.00;1.00;0.50
67376;PMS7003;54261;46.086;6.588;2024-02-04T02:44:40;0.00;0.00;0.00
67376;PMS7003;54261;46.086;6.588;2024-02-04T02:49:43;1.00;1.00;0.50
67376;PMS7003;54261;46.086;6.588;2024-02-04T02:54:46;0.00;0.00;0.00
67376;PMS7003;54261;46.086;6.588;2024-02-04T02:59:48;0.00;0.00;0.00
67376;PMS7003;54261;46.086;6.588;2024-02-04T03:04:50;0.00;0.00;0.00
67376;PMS7003;54261;46.086;6.588;2024-02-04T03:09:52;0.00;0.00;0.00
67376;PMS7003;54261;46.086;6.588;2024-02-04T03:14:55;0.00;0.00;0.00
67376;PMS7003;54261;46.086;6.588;2024-02-04T03:19:58;0.00;0.00;0.00
67376;PMS7003;54261;46.086;6.588;2024-02-04T03:25:01;1.50;1.50;0.00
67376;PMS7003;54261;46.086;6.588;2024-02-04T03:30:03;0.50;0.00;0.00
67376;PMS7003;54261;46.086;6.588;2024-02-04T03:35:07;0.00;0.00;0.00
67376;PMS7003;54261;46.086;6.588;2024-02-04T03:40:10;0.00;0.00;0.00
67376;PMS7003;54261;46.086;6.588;2024-02-04T03:45:13;1.00;0.00;0.00
67376;PMS7003;54261;46.086;6.588;2024-02-04T03:50:15;0.00;0.00;0.00
67376;PMS7003;54261;46.086;6.588;2024-02-04T03:55:17;0.00;0.00;0.00
67376;PMS7003;54261;46.086;6.588;2024-02-04T04:00:20;0.00;0.00;0.00
67376;PMS7003;54261;46.086;6.588;2024-02-04T04:05:22;1.00;1.00;0.25
67376;PMS7003;54261;46.086;6.588;2024-02-04T04:10:24;3.25;2.00;1.50
67376;PMS7003;54261;46.086;6.588;2024-02-04T04:15:27;1.00;1.00;0.50
67376;PMS7003;54261;46.086;6.588;2024-02-04T04:20:30;3.00;2.00;1.25
67376;PMS7003;54261;46.086;6.588;2024-02-04T04:25:32;0.75;0.75;0.00
67376;PMS7003;54261;46.086;6.588;2024-02-04T04:30:35;0.00;0.00;0.00
67376;PMS7003;54261;46.086;6.588;2024-02-04T04:35:39;3.25;2.50;2.25
67376;PMS7003;54261;46.086;6.588;2024-02-04T04:40:40;1.00;1.00;1.00
67376;PMS7003;54261;46.086;6.588;2024-02-04T04:45:43;0.00;0.00;0.00
67376;PMS7003;54261;46.086;6.588;2024-02-04T04:50:45;0.25;0.25;0.25
67376;PMS7003;54261;46.086;6.588;2024-02-04T04:55:48;5.00;5.00;4.00
67376;PMS7003;54261;46.086;6.588;2024-02-04T05:00:50;1.00;1.00;1.00
67376;PMS7003;54261;46.086;6.588;2024-02-04T05:05:53;1.50;1.50;1.00
67376;PMS7003;54261;46.086;6.588;2024-02-04T05:10:55;1.00;1.00;0.50
67376;PMS7003;54261;46.086;6.588;2024-02-04T05:15:59;0.75;0.75;0.75
67376;PMS7003;54261;46.086;6.588;2024-02-04T05:21:01;1.00;1.00;0.75
67376;PMS7003;54261;46.086;6.588;2024-02-04T05:26:04;1.00;1.00;1.00
67376;PMS7003;54261;46.086;6.588;2024-02-04T05:31:07;0.75;0.00;0.00
67376;PMS7003;54261;46.086;6.588;2024-02-04T05:36:09;0.00;0.00;0.00
67376;PMS7003;54261;46.086;6.588;2024-02-04T05:41:12;2.00;2.00;2.00
67376;PMS7003;54261;46.086;6.588;2024-02-04T05:46:14;2.25;2.25;2.00
67376;PMS7003;54261;46.086;6.588;2024-02-04T05:51:16;0.50;0.00;0.00
67376;PMS7003;54261;46.086;6.588;2024-02-04T05:56:18;0.00;0.00;0.00
67376;PMS7003;54261;46.086;6.588;2024-02-04T06:01:21;2.00;2.00;1.00
67376;PMS7003;54261;46.086;6.588;2024-02-04T06:06:25;0.00;0.00;0.00
67376;PMS7003;54261;46.086;6.588;2024-02-04T06:11:27;0.00;0.00;0.00
67376;PMS7003;54261;46.086;6.588;2024-02-04T06:16:30;2.25;1.00;0.50
67376;PMS7003;54261;46.086;6.588;2024-02-04T06:21:32;2.25;2.00;1.00
67376;PMS7003;54261;46.086;6.588;2024-02-04T06:26:37;0.00;0.00;0.00
67376;PMS7003;54261;46.086;6.588;2024-02-04T06:31:43;4.00;4.00;2.25
67376;PMS7003;54261;46.086;6.588;2024-02-04T06:36:46;0.25;0.25;0.00
67376;PMS7003;54261;46.086;6.588;2024-02-04T06:41:48;2.00;2.00;2.00
67376;PMS7003;54261;46.086;6.588;2024-02-04T06:46:50;2.25;2.25;2.00
67376;PMS7003;54261;46.086;6.588;2024-02-04T06:51:52;2.00;2.00;1.50
67376;PMS7003;54261;46.086;6.588;2024-02-04T06:56:58;3.25;2.25;2.00
67376;PMS7003;54261;46.086;6.588;2024-02-04T07:02:01;0.75;0.75;0.00
67376;PMS7003;54261;46.086;6.588;2024-02-04T07:07:03;1.00;1.00;0.25
67376;PMS7003;54261;46.086;6.588;2024-02-04T07:12:05;0.00;0.00;0.00
67376;PMS7003;54261;46.086;6.588;2024-02-04T07:17:07;4.00;4.00;3.25
67376;PMS7003;54261;46.086;6.588;2024-02-04T07:22:11;2.00;2.00;1.75
67376;PMS7003;54261;46.086;6.588;2024-02-04T07:27:14;6.50;4.00;3.00
67376;PMS7003;54261;46.086;6.588;2024-02-04T07:32:16;1.75;1.75;1.50
67376;PMS7003;54261;46.086;6.588;2024-02-04T07:37:18;0.75;0.75;0.50
67376;PMS7003;54261;46.086;6.588;2024-02-04T07:42:22;1.00;1.00;0.00
67376;PMS7003;54261;46.086;6.588;2024-02-04T07:47:25;1.75;1.75;1.00
67376;PMS7003;54261;46.086;6.588;2024-02-04T07:52:28;3.50;3.00;2.75
67376;PMS7003;54261;46.086;6.588;2024-02-04T07:57:31;0.00;0.00;0.00
67376;PMS7003;54261;46.086;6.588;2024-02-04T08:02:33;0.00;0.00;0.00
67376;PMS7003;54261;46.086;6.588;2024-02-04T08:07:36;4.25;3.00;2.00
67376;PMS7003;54261;46.086;6.588;2024-02-04T08:12:38;3.50;3.50;3.00
67376;PMS7003;54261;46.086;6.588;2024-02-04T08:17:41;1.75;1.75;0.75
67376;PMS7003;54261;46.086;6.588;2024-02-04T08:22:43;2.50;2.00;1.00
67376;PMS7003;54261;46.086;6.588;2024-02-04T08:27:45;1.00;1.00;1.00
67376;PMS7003;54261;46.086;6.588;2024-02-04T08:32:48;0.00;0.00;0.00
67376;PMS7003;54261;46.086;6.588;2024-02-04T08:37:50;1.25;0.00;0.00
67376;PMS7003;54261;46.086;6.588;2024-02-04T08:42:53;0.25;0.25;0.00
67376;PMS7003;54261;46.086;6.588;2024-02-04T08:47:55;2.00;1.00;0.75
67376;PMS7003;54261;46.086;6.588;2024-02-04T08:52:58;0.00;0.00;0.00
67376;PMS7003;54261;46.086;6.588;2024-02-04T08:58:00;0.00;0.00;0.00
67376;PMS7003;54261;46.086;6.588;2024-02-04T09:03:02;1.00;1.00;1.00
67376;PMS7003;54261;46.086;6.588;2024-02-04T09:08:05;2.50;1.00;0.25
67376;PMS7003;54261;46.086;6.588;2024-02-04T09:13:07;1.25;0.50;0.00
67376;PMS7003;54261;46.086;6.588;2024-02-04T09:18:10;2.00;2.00;1.25
67376;PMS7003;54261;46.086;6.588;2024-02-04T09:23:12;2.00;1.25;1.00
67376;PMS7003;54261;46.086;6.588;2024-02-04T09:28:15;1.00;1.00;0.50
67376;PMS7003;54261;46.086;6.588;2024-02-04T09:33:18;1.00;1.00;0.25
67376;PMS7003;54261;46.086;6.588;2024-02-04T09:38:23;1.50;1.50;1.00
67376;PMS7003;54261;46.086;6.588;2024-02-04T09:43:26;0.25;0.25;0.00
67376;PMS7003;54261;46.086;6.588;2024-02-04T09:48:29;2.75;1.75;1.00
67376;PMS7003;54261;46.086;6.588;2024-02-04T09:53:35;1.00;1.00;1.00
67376;PMS7003;54261;46.086;6.588;2024-02-04T09:58:44;1.00;1.00;0.75
67376;PMS7003;54261;46.086;6.588;2024-02-04T10:03:48;1.00;1.00;0.00
67376;PMS7003;54261;46.086;6.588;2024-02-04T10:08:51;1.75;1.00;1.00
67376;PMS7003;54261;46.086;6.588;2024-02-04T10:13:54;1.75;1.75;1.50
67376;PMS7003;54261;46.086;6.588;2024-02-04T10:18:56;2.00;2.00;1.75
67376;PMS7003;54261;46.086;6.588;2024-02-04T10:24:00;1.00;1.00;1.00
67376;PMS7003;54261;46.086;6.588;2024-02-04T10:29:07;1.25;1.25;1.00
67376;PMS7003;54261;46.086;6.588;2024-02-04T10:34:09;2.75;2.00;1.00
67376;PMS7003;54261;46.086;6.588;2024-02-04T10:39:11;5.00;4.00;3.00
67376;PMS7003;54261;46.086;6.588;2024-02-04T10:44:14;5.50;5.50;4.00
67376;PMS7003;54261;46.086;6.588;2024-02-04T10:49:19;8.50;5.75;4.50
67376;PMS7003;54261;46.086;6.588;2024-02-04T10:54:22;3.50;3.00;2.00
67376;PMS7003;54261;46.086;6.588;2024-02-04T10:59:29;5.25;4.75;3.00
67376;PMS7003;54261;46.086;6.588;2024-02-04T11:04:34;6.00;4.75;4.00
67376;PMS7003;54261;46.086;6.588;2024-02-04T11:09:38;6.00;4.25;3.00
67376;PMS7003;54261;46.086;6.588;2024-02-04T11:14:42;9.00;6.75;6.25
67376;PMS7003;54261;46.086;6.588;2024-02-04T11:20:28;6.75;5.25;4.50
67376;PMS7003;54261;46.086;6.588;2024-02-04T11:30:48;11.00;10.25;7.25
67376;PMS7003;54261;46.086;6.588;2024-02-04T11:35:58;5.25;5.25;4.00
67376;PMS7003;54261;46.086;6.588;2024-02-04T11:41:02;3.00;3.00;2.00
67376;PMS7003;54261;46.086;6.588;2024-02-04T11:46:05;3.75;3.25;3.00
67376;PMS7003;54261;46.086;6.588;2024-02-04T11:51:09;1.50;1.00;1.00
67376;PMS7003;54261;46.086;6.588;2024-02-04T11:56:12;3.00;2.00;1.00
67376;PMS7003;54261;46.086;6.588;2024-02-04T12:01:15;0.50;0.00;0.00
67376;PMS7003;54261;46.086;6.588;2024-02-04T12:06:17;5.00;4.00;3.00
67376;PMS7003;54261;46.086;6.588;2024-02-04T12:11:21;2.00;1.75;1.50
67376;PMS7003;54261;46.086;6.588;2024-02-04T12:16:24;2.00;2.00;2.00
67376;PMS7003;54261;46.086;6.588;2024-02-04T12:21:27;4.50;4.50;4.50
67376;PMS7003;54261;46.086;6.588;2024-02-04T12:26:30;3.25;3.25;3.00
67376;PMS7003;54261;46.086;6.588;2024-02-04T12:31:33;3.25;3.25;3.00
67376;PMS7003;54261;46.086;6.588;2024-02-04T12:36:35;4.00;4.00;3.00
67376;PMS7003;54261;46.086;6.588;2024-02-04T12:41:37;8.00;7.00;4.33
67376;PMS7003;54261;46.086;6.588;2024-02-04T12:46:39;7.67;7.67;5.67
67376;PMS7003;54261;46.086;6.588;2024-02-04T12:51:42;8.25;7.00;6.00
67376;PMS7003;54261;46.086;6.588;2024-02-04T12:56:45;9.50;8.25;7.25
67376;PMS7003;54261;46.086;6.588;2024-02-04T13:01:50;9.25;9.00;7.75
67376;PMS7003;54261;46.086;6.588;2024-02-04T13:06:53;13.00;13.00;10.25
67376;PMS7003;54261;46.086;6.588;2024-02-04T13:12:02;14.25;14.25;11.50
67376;PMS7003;54261;46.086;6.588;2024-02-04T13:17:06;13.00;13.00;9.25
67376;PMS7003;54261;46.086;6.588;2024-02-04T13:22:09;16.00;13.33;9.67
67376;PMS7003;54261;46.086;6.588;2024-02-04T13:27:11;11.00;10.00;8.00
67376;PMS7003;54261;46.086;6.588;2024-02-04T13:32:14;11.33;8.67;5.33
67376;PMS7003;54261;46.086;6.588;2024-02-04T13:37:16;9.00;8.00;6.00
67376;PMS7003;54261;46.086;6.588;2024-02-04T13:42:18;7.00;6.00;4.00
67376;PMS7003;54261;46.086;6.588;2024-02-04T13:47:21;5.67;4.67;4.00
67376;PMS7003;54261;46.086;6.588;2024-02-04T13:52:23;7.00;6.00;5.00
67376;PMS7003;54261;46.086;6.588;2024-02-04T13:57:25;10.00;9.00;7.33
67376;PMS7003;54261;46.086;6.588;2024-02-04T14:02:28;6.00;4.33;3.00
67376;PMS7003;54261;46.086;6.588;2024-02-04T14:07:32;7.00;7.00;5.00
67376;PMS7003;54261;46.086;6.588;2024-02-04T14:12:34;6.33;4.67;4.33
67376;PMS7003;54261;46.086;6.588;2024-02-04T14:17:38;7.67;6.67;5.67
67376;PMS7003;54261;46.086;6.588;2024-02-04T14:22:40;4.33;4.33;4.00
67376;PMS7003;54261;46.086;6.588;2024-02-04T14:27:42;4.67;4.67;4.00
67376;PMS7003;54261;46.086;6.588;2024-02-04T14:32:45;4.00;3.67;3.00
67376;PMS7003;54261;46.086;6.588;2024-02-04T14:37:47;5.00;5.00;3.67
67376;PMS7003;54261;46.086;6.588;2024-02-04T14:42:50;3.00;3.00;2.67
67376;PMS7003;54261;46.086;6.588;2024-02-04T14:47:54;5.00;5.00;3.00
67376;PMS7003;54261;46.086;6.588;2024-02-04T14:52:56;6.00;5.00;4.00
67376;PMS7003;54261;46.086;6.588;2024-02-04T14:57:58;7.00;5.33;4.00
67376;PMS7003;54261;46.086;6.588;2024-02-04T15:03:01;4.00;4.00;4.00
67376;PMS7003;54261;46.086;6.588;2024-02-04T15:08:03;5.67;5.67;4.00
67376;PMS7003;54261;46.086;6.588;2024-02-04T15:13:06;4.00;4.00;4.00
67376;PMS7003;54261;46.086;6.588;2024-02-04T15:18:10;5.33;5.00;3.33
67376;PMS7003;54261;46.086;6.588;2024-02-04T15:23:13;4.00;3.00;3.00
67376;PMS7003;54261;46.086;6.588;2024-02-04T15:28:16;4.33;4.33;4.00
67376;PMS7003;54261;46.086;6.588;2024-02-04T15:33:19;7.00;6.00;4.00
67376;PMS7003;54261;46.086;6.588;2024-02-04T15:38:21;5.00;4.67;4.00
67376;PMS7003;54261;46.086;6.588;2024-02-04T15:43:24;6.33;5.00;5.00
67376;PMS7003;54261;46.086;6.588;2024-02-04T15:48:28;4.33;3.00;3.00
67376;PMS7003;54261;46.086;6.588;2024-02-04T15:53:34;5.00;4.00;3.00
67376;PMS7003;54261;46.086;6.588;2024-02-04T15:58:37;5.00;5.00;3.67
67376;PMS7003;54261;46.086;6.588;2024-02-04T16:03:39;5.33;3.33;2.00
67376;PMS7003;54261;46.086;6.588;2024-02-04T16:08:42;5.00;5.00;4.00
67376;PMS7003;54261;46.086;6.588;2024-02-04T16:13:47;4.00;4.00;2.00
67376;PMS7003;54261;46.086;6.588;2024-02-04T16:18:52;4.67;3.67;3.00
67376;PMS7003;54261;46.086;6.588;2024-02-04T16:23:55;3.67;3.67;3.00
67376;PMS7003;54261;46.086;6.588;2024-02-04T16:28:57;6.33;4.00;2.00
67376;PMS7003;54261;46.086;6.588;2024-02-04T16:34:01;4.67;4.67;3.33
67376;PMS7003;54261;46.086;6.588;2024-02-04T16:39:03;3.67;3.67;2.33
67376;PMS7003;54261;46.086;6.588;2024-02-04T16:44:08;5.33;4.33;3.33
67376;PMS7003;54261;46.086;6.588;2024-02-04T16:49:11;4.00;4.00;3.50
67376;PMS7003;54261;46.086;6.588;2024-02-04T16:54:20;17.33;13.00;12.00
67376;PMS7003;54261;46.086;6.588;2024-02-04T16:59:30;2.67;2.67;2.00
67376;PMS7003;54261;46.086;6.588;2024-02-04T17:04:32;4.00;3.00;3.00
67376;PMS7003;54261;46.086;6.588;2024-02-04T17:09:34;1.00;1.00;0.00
67376;PMS7003;54261;46.086;6.588;2024-02-04T17:14:37;3.67;3.00;2.00
67376;PMS7003;54261;46.086;6.588;2024-02-04T17:19:45;3.50;3.50;2.25
67376;PMS7003;54261;46.086;6.588;2024-02-04T17:24:49;3.00;2.00;1.33
67376;PMS7003;54261;46.086;6.588;2024-02-04T17:29:53;1.00;1.00;1.00
67376;PMS7003;54261;46.086;6.588;2024-02-04T17:35:00;5.00;2.00;1.25
67376;PMS7003;54261;46.086;6.588;2024-02-04T17:40:03;3.00;3.00;2.50
67376;PMS7003;54261;46.086;6.588;2024-02-04T17:45:09;2.00;2.00;1.00
67376;PMS7003;54261;46.086;6.588;2024-02-04T17:50:12;2.00;2.00;1.50
67376;PMS7003;54261;46.086;6.588;2024-02-04T17:55:15;1.75;1.75;1.00
67376;PMS7003;54261;46.086;6.588;2024-02-04T18:00:17;1.75;1.00;1.00
67376;PMS7003;54261;46.086;6.588;2024-02-04T18:05:20;9.00;7.25;5.50
67376;PMS7003;54261;46.086;6.588;2024-02-04T18:10:23;3.25;3.00;2.00
67376;PMS7003;54261;46.086;6.588;2024-02-04T18:15:25;0.50;0.50;0.00
67376;PMS7003;54261;46.086;6.588;2024-02-04T18:20:28;4.00;4.00;2.00
67376;PMS7003;54261;46.086;6.588;2024-02-04T18:25:31;2.75;2.75;2.00
67376;PMS7003;54261;46.086;6.588;2024-02-04T18:30:33;4.00;2.00;0.75
67376;PMS7003;54261;46.086;6.588;2024-02-04T18:35:36;6.75;4.75;4.00
67376;PMS7003;54261;46.086;6.588;2024-02-04T18:40:38;3.25;3.25;3.00
67376;PMS7003;54261;46.086;6.588;2024-02-04T18:45:40;3.00;3.00;2.00
67376;PMS7003;54261;46.086;6.588;2024-02-04T18:50:43;2.00;2.00;2.00
67376;PMS7003;54261;46.086;6.588;2024-02-04T18:55:45;0.75;0.75;0.00
67376;PMS7003;54261;46.086;6.588;2024-02-04T19:00:50;2.00;2.00;1.50
67376;PMS7003;54261;46.086;6.588;2024-02-04T19:05:55;2.00;2.00;1.75
67376;PMS7003;54261;46.086;6.588;2024-02-04T19:10:57;3.00;2.00;1.00
67376;PMS7003;54261;46.086;6.588;2024-02-04T19:16:01;13.00;11.75;8.25
67376;PMS7003;54261;46.086;6.588;2024-02-04T19:21:03;7.75;6.25;5.25
67376;PMS7003;54261;46.086;6.588;2024-02-04T19:26:06;7.50;7.50;6.00
67376;PMS7003;54261;46.086;6.588;2024-02-04T19:31:09;5.00;5.00;3.00
67376;PMS7003;54261;46.086;6.588;2024-02-04T19:36:11;0.50;0.50;0.00
67376;PMS7003;54261;46.086;6.588;2024-02-04T19:41:13;4.75;4.75;2.25
67376;PMS7003;54261;46.086;6.588;2024-02-04T19:46:16;2.00;2.00;1.00
67376;PMS7003;54261;46.086;6.588;2024-02-04T19:51:18;2.00;1.00;1.00
67376;PMS7003;54261;46.086;6.588;2024-02-04T19:56:21;2.00;2.00;1.50
67376;PMS7003;54261;46.086;6.588;2024-02-04T20:01:24;5.67;3.00;2.00
67376;PMS7003;54261;46.086;6.588;2024-02-04T20:06:27;6.00;4.75;3.75
67376;PMS7003;54261;46.086;6.588;2024-02-04T20:11:29;6.00;4.25;3.00
67376;PMS7003;54261;46.086;6.588;2024-02-04T20:16:35;1.00;1.00;1.00
67376;PMS7003;54261;46.086;6.588;2024-02-04T20:21:37;2.75;1.50;1.25
67376;PMS7003;54261;46.086;6.588;2024-02-04T20:26:41;2.50;2.00;1.00
67376;PMS7003;54261;46.086;6.588;2024-02-04T20:31:44;2.00;2.00;2.00
67376;PMS7003;54261;46.086;6.588;2024-02-04T20:36:49;9.75;6.25;5.00
67376;PMS7003;54261;46.086;6.588;2024-02-04T20:41:54;3.00;2.00;1.00
67376;PMS7003;54261;46.086;6.588;2024-02-04T20:47:00;1.00;1.00;1.00
67376;PMS7003;54261;46.086;6.588;2024-02-04T20:52:03;1.75;1.75;1.00
67376;PMS7003;54261;46.086;6.588;2024-02-04T20:57:05;4.00;2.00;1.75
67376;PMS7003;54261;46.086;6.588;2024-02-04T21:02:07;7.00;5.50;4.00
67376;PMS7003;54261;46.086;6.588;2024-02-04T21:07:10;5.00;5.00;4.50
67376;PMS7003;54261;46.086;6.588;2024-02-04T21:12:12;4.75;4.75;4.00
67376;PMS7003;54261;46.086;6.588;2024-02-04T21:17:16;3.00;3.00;2.00
67376;PMS7003;54261;46.086;6.588;2024-02-04T21:22:17;2.00;2.00;2.00
67376;PMS7003;54261;46.086;6.588;2024-02-04T21:27:19;2.00;2.00;1.00
67376;PMS7003;54261;46.086;6.588;2024-02-04T21:32:22;5.25;4.00;1.75
67376;PMS7003;54261;46.086;6.588;2024-02-04T21:37:26;1.25;0.00;0.00
67376;PMS7003;54261;46.086;6.588;2024-02-04T21:42:28;4.75;3.00;3.00
67376;PMS7003;54261;46.086;6.588;2024-02-04T21:47:33;2.00;2.00;1.00
67376;PMS7003;54261;46.086;6.588;2024-02-04T21:52:35;1.00;1.00;1.00
67376;PMS7003;54261;46.086;6.588;2024-02-04T21:57:38;5.00;4.00;3.00
67376;PMS7003;54261;46.086;6.588;2024-02-04T22:02:42;2.00;2.00;1.00
67376;PMS7003;54261;46.086;6.588;2024-02-04T22:07:45;3.00;2.25;1.25
67376;PMS7003;54261;46.086;6.588;2024-02-04T22:12:49;0.00;0.00;0.00
67376;PMS7003;54261;46.086;6.588;2024-02-04T22:17:51;3.00;3.00;2.00
67376;PMS7003;54261;46.086;6.588;2024-02-04T22:22:53;7.50;6.25;4.00
67376;PMS7003;54261;46.086;6.588;2024-02-04T22:27:56;2.25;2.25;1.00
67376;PMS7003;54261;46.086;6.588;2024-02-04T22:32:59;3.50;2.75;2.00
67376;PMS7003;54261;46.086;6.588;2024-02-04T22:38:01;2.25;1.00;1.00
67376;PMS7003;54261;46.086;6.588;2024-02-04T22:43:03;1.25;1.00;0.00
67376;PMS7003;54261;46.086;6.588;2024-02-04T22:48:05;2.75;2.75;1.00
67376;PMS7003;54261;46.086;6.588;2024-02-04T22:53:09;1.00;0.50;0.25
67376;PMS7003;54261;46.086;6.588;2024-02-04T22:58:11;1.00;1.00;0.25
67376;PMS7003;54261;46.086;6.588;2024-02-04T23:03:14;2.25;2.25;2.00
67376;PMS7003;54261;46.086;6.588;2024-02-04T23:08:16;2.75;2.50;1.75
67376;PMS7003;54261;46.086;6.588;2024-02-04T23:13:18;5.50;5.50;4.00
67376;PMS7003;54261;46.086;6.588;2024-02-04T23:18:21;8.25;4.75;3.50
67376;PMS7003;54261;46.086;6.588;2024-02-04T23:23:23;1.00;1.00;1.00
67376;PMS7003;54261;46.086;6.588;2024-02-04T23:28:28;4.00;3.00;2.00
67376;PMS7003;54261;46.086;6.588;2024-02-04T23:33:31;2.00;2.00;1.00
67376;PMS7003;54261;46.086;6.588;2024-02-04T23:38:34;0.00;0.00;0.00
67376;PMS7003;54261;46.086;6.588;2024-02-04T23:43:35;1.00;0.00;0.00
67376;PMS7003;54261;46.086;6.588;2024-02-04T23:48:38;1.00;1.00;0.50
67376;PMS7003;54261;46.086;6.588;2024-02-04T23:53:42;3.75;3.75;2.00
67376;PMS7003;54261;46.086;6.588;2024-02-04T23:58:44;1.00;0.00;0.00
